Dayton-Wright Brothers (MGY)

 

Airport Diagram
No Airport Diagram Available
Current Weather/Forecast (VFR Conditions)
METAR KMGY 071253Z AUTO 32009KT 10SM FEW013 07/04 A3003 RMK AO2 SLP171 T00720039
TAF

Airport Information

All Charts
General
Chart Name View
TAKEOFF MINIMUMS
ALTERNATE MINIMUMS

Arrivals
Chart Name Download
DANEI THREE

Approaches
Chart Name Download
RNAV (GPS) RWY 02
RNAV (GPS) RWY 20
LOC RWY 20
NDB-A


Airport Statistics
Departures Arrivals Local
All Collected Stats since June 2016: 25 8 3
2021 Stats: 4 1 2
May Stats: 1 0 0

Inbound Traffic (Arrivals) - 0

No inbound traffic.


Outbound Traffic (Departures) - 0

No outbound traffic.


Local Traffic (Pattern) - 0

No local traffic.